Time;durP1;ratioP1;P1;durP2;ratioP2;P2;SDS_P1;SDS_P2;PMS_P1;PMS_P2;Temp;Humidity;BMP_temperature;BMP_pressure;BME280_temperature;BME280_humidity;BME280_pressure;Samples;Min_cycle;Max_cycle;Signal;HPM_P1;HPM_P2
2023/01/16 00:00:17;;;;;;;2.42;0.10;;;19.60;45.30;;;;;;5106788;28;20040;-50
2023/01/16 00:02:44;;;;;;;2.13;0.10;;;19.60;45.40;;;;;;5110596;28;20468;-54
2023/01/16 00:05:11;;;;;;;0.60;0.10;;;19.60;45.40;;;;;;5110579;28;20089;-52
2023/01/16 00:07:38;;;;;;;0.73;0.28;;;19.60;45.50;;;;;;5110573;28;20048;-51
2023/01/16 00:10:06;;;;;;;1.33;0.32;;;19.60;45.50;;;;;;5110414;28;20050;-51
2023/01/16 00:12:35;;;;;;;1.73;0.10;;;19.60;45.60;;;;;;5110262;28;20122;-54
2023/01/16 00:15:02;;;;;;;1.15;0.43;;;19.60;45.70;;;;;;5110251;28;20049;-55
2023/01/16 00:17:30;;;;;;;1.17;0.10;;;19.60;45.70;;;;;;5110377;28;20052;-54
2023/01/16 00:19:57;;;;;;;2.00;0.10;;;19.50;45.70;;;;;;5110096;28;20508;-53
2023/01/16 00:22:24;;;;;;;1.45;0.10;;;19.50;45.80;;;;;;5110524;28;20043;-55
2023/01/16 00:24:51;;;;;;;3.33;0.20;;;19.50;45.80;;;;;;5109686;28;20050;-51
2023/01/16 00:27:18;;;;;;;1.58;0.10;;;19.50;45.90;;;;;;5109982;28;20055;-51
2023/01/16 00:29:47;;;;;;;1.67;0.20;;;19.40;45.90;;;;;;5110007;28;20067;-52
2023/01/16 00:32:15;;;;;;;2.53;0.10;;;19.50;45.90;;;;;;5109665;28;20046;-53
2023/01/16 00:34:42;;;;;;;1.58;0.80;;;19.40;46.00;;;;;;5109488;28;20547;-50
2023/01/16 00:37:09;;;;;;;0.43;0.10;;;19.50;46.10;;;;;;5108391;28;20047;-52
2023/01/16 00:39:38;;;;;;;1.30;0.08;;;19.50;46.20;;;;;;5108098;28;20035;-52
2023/01/16 00:42:05;;;;;;;0.85;0.30;;;19.40;46.20;;;;;;5108219;28;20071;-53
2023/01/16 00:44:32;;;;;;;1.45;0.63;;;19.50;46.40;;;;;;5108426;28;20407;-53
2023/01/16 00:47:01;;;;;;;1.05;0.17;;;19.40;46.30;;;;;;5107487;28;20043;-53
2023/01/16 00:49:28;;;;;;;2.60;1.27;;;19.40;46.40;;;;;;5108522;28;20036;-52
2023/01/16 00:51:55;;;;;;;0.68;0.10;;;19.40;46.50;;;;;;5108731;28;20044;-54
2023/01/16 00:54:22;;;;;;;0.45;0.10;;;19.40;46.60;;;;;;5107421;28;20040;-53
2023/01/16 00:56:49;;;;;;;1.73;0.40;;;19.40;46.70;;;;;;5108514;28;20036;-55
2023/01/16 00:59:16;;;;;;;0.40;0.03;;;19.40;46.60;;;;;;5108415;28;20036;-53
2023/01/16 01:01:43;;;;;;;3.22;0.10;;;19.40;46.70;;;;;;5108245;28;20071;-53
2023/01/16 01:04:12;;;;;;;0.43;0.10;;;19.40;46.80;;;;;;5108612;28;20037;-54
2023/01/16 01:06:39;;;;;;;1.48;0.10;;;19.40;46.80;;;;;;5108329;28;20040;-54
2023/01/16 01:09:06;;;;;;;0.20;0.10;;;19.40;46.80;;;;;;5108114;28;20040;-53
2023/01/16 01:11:33;;;;;;;1.60;0.85;;;19.30;46.80;;;;;;5108350;28;20463;-52
2023/01/16 01:14:00;;;;;;;0.57;0.30;;;19.30;46.80;;;;;;5107745;28;20040;-54
2023/01/16 01:16:27;;;;;;;1.98;0.20;;;19.30;46.90;;;;;;5108045;28;20044;-54
2023/01/16 01:18:54;;;;;;;0.85;0.10;;;19.30;47.00;;;;;;5108316;28;20126;-51
2023/01/16 01:21:23;;;;;;;1.15;0.10;;;19.30;47.00;;;;;;5107891;28;20139;-53
2023/01/16 01:23:50;;;;;;;0.32;0.00;;;19.30;47.10;;;;;;5107751;28;20036;-51
2023/01/16 01:26:18;;;;;;;2.78;0.20;;;19.30;47.10;;;;;;5107635;28;20523;-52
2023/01/16 01:28:45;;;;;;;1.52;0.10;;;19.30;47.80;;;;;;5107611;28;20779;-51
2023/01/16 01:31:13;;;;;;;1.90;0.10;;;19.30;47.20;;;;;;5107763;28;20123;-54
2023/01/16 01:33:41;;;;;;;1.92;0.10;;;19.30;47.20;;;;;;5107824;28;20067;-54
2023/01/16 01:36:09;;;;;;;1.13;0.10;;;19.30;47.20;;;;;;5068899;28;1112828;-54
2023/01/16 01:38:38;;;;;;;2.05;0.10;;;19.30;47.30;;;;;;5104644;28;20100;-54
2023/01/16 01:41:05;;;;;;;0.77;0.08;;;19.30;47.20;;;;;;5108554;28;20036;-53
2023/01/16 01:43:44;;;;;;;0.63;0.08;;;19.30;47.30;;;;;;5108119;28;20040;-50
2023/01/16 01:46:23;;;;;;;1.05;0.10;;;19.30;47.30;;;;;;5108338;28;20048;-50
2023/01/16 01:48:55;;;;;;;0.90;0.10;;;19.30;47.20;;;;;;5108669;28;20089;-50
2023/01/16 01:51:26;;;;;;;2.13;0.68;;;19.30;47.30;;;;;;5108179;28;20063;-50
2023/01/16 01:54:00;;;;;;;1.88;0.10;;;19.30;47.50;;;;;;5099961;28;20437;-51
2023/01/16 01:56:31;;;;;;;4.05;0.10;;;19.30;47.40;;;;;;5106707;28;20511;-50
2023/01/16 01:59:06;;;;;;;1.88;0.00;;;19.20;47.40;;;;;;5107868;28;20039;-52
2023/01/16 02:01:33;;;;;;;2.38;0.10;;;19.20;47.40;;;;;;5089562;28;20059;-51
2023/01/16 02:04:04;;;;;;;0.60;0.00;;;19.20;47.40;;;;;;5107871;27;20046;-52
2023/01/16 02:06:38;;;;;;;1.00;0.10;;;19.20;47.40;;;;;;5106868;28;20135;-51
2023/01/16 02:09:07;;;;;;;1.10;0.10;;;19.20;47.40;;;;;;5107904;28;20035;-52
2023/01/16 02:11:39;;;;;;;2.78;0.10;;;19.20;48.10;;;;;;5107863;28;20089;-49
2023/01/16 02:14:09;;;;;;;0.80;0.10;;;19.20;47.60;;;;;;5107534;28;20055;-49
2023/01/16 02:19:33;;;;;;;0.20;0.10;;;19.20;47.60;;;;;;5044167;28;20122;-53
2023/01/16 02:22:31;;;;;;;1.55;0.10;;;19.20;47.60;;;;;;5044690;28;20131;-54
2023/01/16 02:25:31;;;;;;;0.57;0.57;;;19.20;47.60;;;;;;4985047;28;20047;-55
2023/01/16 02:28:28;;;;;;;1.25;0.75;;;19.20;47.60;;;;;;4908046;29;20506;-51
2023/01/16 02:31:08;;;;;;;2.95;0.45;;;19.10;47.50;;;;;;4904009;29;20067;-50
2023/01/16 02:33:48;;;;;;;2.72;0.08;;;19.10;47.50;;;;;;4907837;29;20512;-49
2023/01/16 02:36:23;;;;;;;1.38;0.00;;;19.10;47.30;;;;;;4907258;29;20111;-52
2023/01/16 02:38:56;;;;;;;0.20;0.10;;;19.10;47.40;;;;;;4908078;29;20048;-51
2023/01/16 02:41:41;;;;;;;1.10;0.00;;;19.10;47.50;;;;;;4907636;29;20490;-49
2023/01/16 02:44:16;;;;;;;1.48;0.00;;;19.10;47.70;;;;;;4907812;29;20499;-49
2023/01/16 02:46:52;;;;;;;0.70;0.00;;;19.10;47.60;;;;;;4907637;29;20087;-53
2023/01/16 02:49:22;;;;;;;;;;;19.10;47.50;;;;;;4908165;29;20588;-54
2023/01/16 02:51:57;;;;;;;0.52;0.00;;;19.00;47.60;;;;;;4906287;29;19934;-52
2023/01/16 02:54:29;;;;;;;1.00;0.20;;;19.00;47.80;;;;;;4907656;29;20080;-54
2023/01/16 02:57:04;;;;;;;1.02;0.00;;;19.00;47.80;;;;;;4933829;29;20524;-51
2023/01/16 02:59:32;;;;;;;1.23;0.00;;;19.00;47.80;;;;;;4945680;29;20079;-52
2023/01/16 03:02:02;;;;;;;0.10;0.00;;;19.00;47.80;;;;;;4981952;28;20076;-51
2023/01/16 03:04:43;;;;;;;0.63;0.00;;;19.00;47.80;;;;;;5046341;28;20131;-52
2023/01/16 03:07:24;;;;;;;0.60;0.00;;;19.00;47.80;;;;;;5107080;28;20096;-52
2023/01/16 03:10:06;;;;;;;0.10;0.00;;;19.00;47.80;;;;;;5106953;28;20039;-52
2023/01/16 03:12:45;;;;;;;2.75;0.00;;;19.00;47.80;;;;;;5107139;28;20063;-50
2023/01/16 03:15:19;;;;;;;0.17;0.00;;;18.90;47.80;;;;;;5106753;28;20047;-52
2023/01/16 03:17:55;;;;;;;1.80;0.10;;;18.90;47.80;;;;;;5106473;28;20100;-51
2023/01/16 03:20:35;;;;;;;0.70;0.20;;;18.90;47.80;;;;;;5106438;28;20515;-54
2023/01/16 03:23:08;;;;;;;0.10;0.00;;;18.90;47.80;;;;;;5106874;28;20132;-53
2023/01/16 03:25:42;;;;;;;1.27;0.20;;;18.90;47.80;;;;;;5106418;28;20123;-52
2023/01/16 03:28:21;;;;;;;0.47;0.17;;;18.90;47.80;;;;;;5106517;28;20635;-55
2023/01/16 03:30:55;;;;;;;1.45;0.00;;;18.90;47.70;;;;;;5106686;28;20040;-54
2023/01/16 03:33:34;;;;;;;0.50;0.00;;;18.90;47.60;;;;;;5102317;28;20032;-53
2023/01/16 03:36:07;;;;;;;0.00;0.00;;;18.90;47.80;;;;;;5106060;28;20048;-49
2023/01/16 03:38:36;;;;;;;1.45;0.00;;;18.90;47.90;;;;;;5106429;28;20499;-52
2023/01/16 03:41:07;;;;;;;3.10;0.00;;;18.90;47.90;;;;;;5106357;28;20405;-53
2023/01/16 03:43:37;;;;;;;0.10;0.00;;;18.90;47.50;;;;;;5106038;28;20438;-54
2023/01/16 03:46:08;;;;;;;0.30;0.10;;;18.80;47.60;;;;;;5106208;28;20048;-53
2023/01/16 03:48:42;;;;;;;0.65;0.00;;;18.80;47.80;;;;;;5106085;28;20682;-51
2023/01/16 03:51:13;;;;;;;0.10;0.00;;;18.80;47.70;;;;;;5102564;28;20051;-50
2023/01/16 03:53:46;;;;;;;0.03;0.00;;;18.80;47.60;;;;;;5106163;28;20108;-53
2023/01/16 03:56:18;;;;;;;0.32;0.10;;;18.80;47.80;;;;;;5106094;28;20105;-53
2023/01/16 03:58:48;;;;;;;0.00;0.00;;;18.80;47.60;;;;;;5106378;28;20419;-51
2023/01/16 04:01:23;;;;;;;2.08;0.00;;;18.80;47.40;;;;;;5106626;28;20045;-51
2023/01/16 04:03:58;;;;;;;0.00;0.00;;;18.80;47.80;;;;;;5106080;28;20136;-49
2023/01/16 04:06:30;;;;;;;2.08;0.00;;;18.80;47.90;;;;;;5106377;28;20051;-53
2023/01/16 04:08:59;;;;;;;1.40;0.00;;;18.70;48.00;;;;;;5106064;28;20116;-53
2023/01/16 04:11:27;;;;;;;0.75;0.00;;;18.70;48.10;;;;;;5105759;28;20480;-48
2023/01/16 04:13:57;;;;;;;0.00;0.00;;;18.80;48.00;;;;;;5106018;28;20043;-51
2023/01/16 04:16:25;;;;;;;0.00;0.00;;;18.70;48.10;;;;;;5105826;28;20135;-50
2023/01/16 04:18:56;;;;;;;0.10;0.00;;;18.70;48.20;;;;;;5105625;28;20061;-54
2023/01/16 04:21:27;;;;;;;0.00;0.00;;;18.70;48.20;;;;;;5105852;28;20523;-53
2023/01/16 04:23:56;;;;;;;0.30;0.00;;;18.70;48.30;;;;;;5105961;28;20056;-50
2023/01/16 04:26:23;;;;;;;0.00;0.00;;;18.70;48.40;;;;;;5105683;28;20042;-52
2023/01/16 04:28:54;;;;;;;0.40;0.00;;;18.70;48.30;;;;;;5093620;28;20123;-50
2023/01/16 04:31:23;;;;;;;0.00;0.00;;;18.70;48.40;;;;;;5095153;28;20043;-51
2023/01/16 04:33:50;;;;;;;0.00;0.00;;;18.70;48.40;;;;;;5091402;28;20077;-49
2023/01/16 04:36:18;;;;;;;0.32;0.00;;;18.70;48.50;;;;;;5109276;28;20056;-51
2023/01/16 04:38:45;;;;;;;0.03;0.00;;;18.70;48.40;;;;;;5091457;28;20383;-48
2023/01/16 04:41:35;;;;;;;0.10;0.00;;;18.70;48.50;;;;;;5109576;28;20044;-53
2023/01/16 04:44:00;;;;;;;0.00;0.00;;;18.70;48.50;;;;;;5088731;28;20481;-55
2023/01/16 04:46:27;;;;;;;0.00;0.00;;;18.70;48.60;;;;;;5088413;28;20036;-50
2023/01/16 04:48:54;;;;;;;0.70;0.00;;;18.70;48.60;;;;;;5088909;28;20059;-53
2023/01/16 04:51:22;;;;;;;0.25;0.00;;;18.70;48.60;;;;;;5088593;28;20038;-49
2023/01/16 04:53:49;;;;;;;0.00;0.00;;;18.70;48.60;;;;;;5095406;28;20047;-54
2023/01/16 04:56:16;;;;;;;0.00;0.00;;;18.70;48.60;;;;;;5108830;28;20039;-52
2023/01/16 04:58:43;;;;;;;0.28;0.00;;;18.70;48.70;;;;;;5108769;28;20462;-53
2023/01/16 05:01:10;;;;;;;0.00;0.00;;;18.70;48.60;;;;;;5108600;28;20043;-52
2023/01/16 05:03:37;;;;;;;0.00;0.00;;;18.70;48.70;;;;;;5108991;28;20043;-48
2023/01/16 05:06:05;;;;;;;0.00;0.00;;;18.70;48.70;;;;;;5090975;28;20066;-50
2023/01/16 05:08:33;;;;;;;0.10;0.00;;;18.60;48.60;;;;;;5109105;28;20162;-53
2023/01/16 05:11:01;;;;;;;0.35;0.00;;;18.70;48.70;;;;;;5109278;28;20054;-53
2023/01/16 05:13:29;;;;;;;0.15;0.00;;;18.70;48.70;;;;;;5108829;28;20039;-51
2023/01/16 05:15:56;;;;;;;0.00;0.00;;;18.70;48.70;;;;;;5108634;28;20385;-51
2023/01/16 05:18:24;;;;;;;1.55;0.00;;;18.70;48.70;;;;;;5089808;28;20121;-50
2023/01/16 05:20:51;;;;;;;0.28;0.00;;;18.70;48.70;;;;;;5088390;28;20032;-50
2023/01/16 05:23:18;;;;;;;0.52;0.52;;;18.70;48.70;;;;;;5088274;28;20047;-50
2023/01/16 05:25:48;;;;;;;1.02;0.00;;;18.70;48.60;;;;;;5100959;28;20443;-52
2023/01/16 05:28:15;;;;;;;0.20;0.00;;;18.70;48.60;;;;;;5108318;28;20043;-53
2023/01/16 05:30:42;;;;;;;0.73;0.20;;;18.70;48.60;;;;;;5107948;28;20048;-53
2023/01/16 05:33:09;;;;;;;0.22;0.00;;;18.70;48.60;;;;;;5108105;28;20116;-51
2023/01/16 05:35:36;;;;;;;0.00;0.00;;;18.70;48.60;;;;;;5108267;28;20055;-50
2023/01/16 05:38:03;;;;;;;0.00;0.00;;;18.70;48.60;;;;;;5106464;28;20066;-49
2023/01/16 05:40:30;;;;;;;0.55;0.00;;;18.70;48.70;;;;;;5090172;28;20131;-52
2023/01/16 05:42:58;;;;;;;0.28;0.00;;;18.70;48.70;;;;;;5108084;28;20483;-53
2023/01/16 05:45:25;;;;;;;0.00;0.00;;;18.70;48.60;;;;;;5106453;28;20043;-50
2023/01/16 05:47:53;;;;;;;0.05;0.00;;;18.70;48.60;;;;;;5105393;28;20075;-49
2023/01/16 05:50:20;;;;;;;0.38;0.10;;;18.70;48.60;;;;;;5108095;28;20583;-50
2023/01/16 05:52:49;;;;;;;0.20;0.20;;;18.70;48.60;;;;;;5107981;28;20284;-50
2023/01/16 05:55:16;;;;;;;0.35;0.00;;;18.70;48.60;;;;;;5107699;28;20043;-52
2023/01/16 05:57:43;;;;;;;0.73;0.00;;;18.70;48.60;;;;;;5108194;28;20071;-52
2023/01/16 06:00:12;;;;;;;2.28;0.00;;;18.70;48.60;;;;;;5107444;28;20108;-52
2023/01/16 06:02:40;;;;;;;0.00;0.00;;;18.70;48.60;;;;;;5107611;28;20138;-50
2023/01/16 06:05:07;;;;;;;0.57;0.03;;;18.70;48.60;;;;;;5104063;28;20032;-52
2023/01/16 06:07:34;;;;;;;0.10;0.00;;;18.80;48.60;;;;;;5087349;28;21108;-52
2023/01/16 06:10:02;;;;;;;1.23;0.00;;;18.70;48.60;;;;;;5069136;28;20478;-54
2023/01/16 06:12:31;;;;;;;0.00;0.00;;;18.70;48.60;;;;;;5087429;28;20044;-52
2023/01/16 06:14:58;;;;;;;0.25;0.00;;;18.70;48.40;;;;;;5086509;28;20047;-54
2023/01/16 06:17:27;;;;;;;1.55;0.00;;;18.70;48.50;;;;;;5086848;28;20054;-51
2023/01/16 06:19:54;;;;;;;1.88;0.08;;;18.80;48.60;;;;;;5087235;28;20075;-49
2023/01/16 06:22:21;;;;;;;0.00;0.00;;;18.70;48.50;;;;;;5086991;28;20067;-50
2023/01/16 06:24:48;;;;;;;0.68;0.15;;;18.80;48.60;;;;;;5091696;28;20127;-53
2023/01/16 06:27:15;;;;;;;2.13;0.47;;;18.80;48.50;;;;;;5106909;28;20035;-54
2023/01/16 06:29:43;;;;;;;0.80;0.10;;;18.80;48.50;;;;;;5106997;28;20490;-54
2023/01/16 06:32:10;;;;;;;0.55;0.00;;;18.80;48.50;;;;;;5107036;28;20039;-53
2023/01/16 06:34:38;;;;;;;2.05;0.15;;;18.80;48.50;;;;;;5106819;28;20458;-50
2023/01/16 06:37:05;;;;;;;4.40;0.00;;;18.80;48.40;;;;;;5106814;27;20050;-54
2023/01/16 06:39:33;;;;;;;1.60;0.00;;;18.80;48.50;;;;;;5106873;28;20047;-53
2023/01/16 06:42:00;;;;;;;1.23;0.10;;;18.80;48.50;;;;;;5106459;28;20036;-49
2023/01/16 06:44:27;;;;;;;0.57;0.10;;;18.80;48.50;;;;;;5106946;28;20044;-49
2023/01/16 06:46:54;;;;;;;0.30;0.00;;;18.80;48.50;;;;;;5106239;28;20039;-52
2023/01/16 06:49:21;;;;;;;2.38;0.00;;;18.80;48.50;;;;;;5106815;28;20573;-49
2023/01/16 06:51:49;;;;;;;0.10;0.00;;;18.80;48.50;;;;;;5106892;28;20050;-53
2023/01/16 06:54:16;;;;;;;0.40;0.08;;;18.80;48.50;;;;;;5068155;28;20562;-54
2023/01/16 06:56:44;;;;;;;2.65;0.30;;;18.80;48.50;;;;;;5106676;28;20082;-52
2023/01/16 06:59:11;;;;;;;0.90;0.10;;;18.80;48.50;;;;;;5106989;28;20047;-53
2023/01/16 07:01:38;;;;;;;0.30;0.00;;;18.80;48.50;;;;;;5087804;28;20568;-55
2023/01/16 07:04:06;;;;;;;0.73;0.00;;;18.80;48.40;;;;;;5106527;28;20096;-54
2023/01/16 07:06:34;;;;;;;0.00;0.00;;;18.80;48.40;;;;;;5106030;28;20046;-53
2023/01/16 07:09:02;;;;;;;0.85;0.30;;;18.80;48.40;;;;;;5088257;28;20050;-54
2023/01/16 07:11:29;;;;;;;2.15;0.43;;;18.80;48.30;;;;;;5106216;28;20126;-53
2023/01/16 07:24:54;;;;;;;0.50;0.03;;;18.80;48.50;;;;;;5106426;28;20151;-54
2023/01/16 07:27:21;;;;;;;0.70;0.10;;;18.80;48.40;;;;;;5106246;28;20703;-56
2023/01/16 07:29:48;;;;;;;0.30;0.05;;;18.80;48.50;;;;;;5106371;28;20805;-52
2023/01/16 07:32:15;;;;;;;0.63;0.00;;;18.80;48.50;;;;;;5087472;28;20124;-55
2023/01/16 07:34:42;;;;;;;0.65;0.00;;;18.80;48.50;;;;;;5106092;28;20138;-54
2023/01/16 07:37:10;;;;;;;0.10;0.00;;;18.80;48.50;;;;;;5106465;28;20105;-54
2023/01/16 07:39:37;;;;;;;2.10;0.00;;;18.80;48.50;;;;;;5106381;28;20568;-53
2023/01/16 07:42:07;;;;;;;1.17;0.00;;;18.80;48.40;;;;;;5101767;28;20032;-55
2023/01/16 07:44:35;;;;;;;0.63;0.00;;;18.80;48.50;;;;;;5085832;28;20871;-52
2023/01/16 07:47:02;;;;;;;0.35;0.00;;;18.80;48.50;;;;;;5091109;28;20036;-52
2023/01/16 07:49:29;;;;;;;0.20;0.00;;;18.80;48.40;;;;;;5085959;28;20083;-53
2023/01/16 07:51:56;;;;;;;0.52;0.00;;;18.80;48.40;;;;;;5085972;28;20047;-51
2023/01/16 07:54:23;;;;;;;0.10;0.00;;;18.80;48.50;;;;;;5096958;28;20484;-53
2023/01/16 07:56:50;;;;;;;0.28;0.00;;;18.80;48.40;;;;;;5106184;28;20163;-52
2023/01/16 07:59:19;;;;;;;0.65;0.00;;;18.80;48.40;;;;;;5106371;28;20048;-52
2023/01/16 08:01:46;;;;;;;0.98;0.20;;;18.80;48.40;;;;;;5105858;28;20430;-53
2023/01/16 08:04:14;;;;;;;0.35;0.00;;;18.80;48.40;;;;;;5107919;28;20077;-54
2023/01/16 08:06:44;;;;;;;0.47;0.00;;;18.80;48.40;;;;;;5110160;28;20055;-53
2023/01/16 08:09:11;;;;;;;0.15;0.03;;;18.80;49.00;;;;;;5110102;28;20083;-53
2023/01/16 08:11:39;;;;;;;0.57;0.00;;;18.80;48.50;;;;;;5110285;28;20040;-54
2023/01/16 08:14:07;;;;;;;1.58;0.08;;;18.80;48.50;;;;;;5110098;28;20484;-52
2023/01/16 08:16:36;;;;;;;0.13;0.00;;;18.80;48.50;;;;;;5109698;28;20066;-53
2023/01/16 08:19:03;;;;;;;0.30;0.00;;;18.80;48.50;;;;;;5109686;28;20047;-55
2023/01/16 08:21:31;;;;;;;1.85;0.35;;;18.80;48.50;;;;;;5109665;28;20067;-54
2023/01/16 08:23:58;;;;;;;0.80;0.25;;;18.80;48.50;;;;;;5109616;28;20044;-56
2023/01/16 08:26:25;;;;;;;0.35;0.30;;;18.80;48.50;;;;;;5109744;28;20042;-52
2023/01/16 08:28:52;;;;;;;1.42;0.00;;;18.80;48.50;;;;;;5109685;28;20127;-51
2023/01/16 08:31:20;;;;;;;1.55;0.00;;;18.80;48.50;;;;;;5109635;28;20529;-52
2023/01/16 08:33:50;;;;;;;0.22;0.00;;;18.80;48.50;;;;;;5109117;28;20443;-54
2023/01/16 08:36:20;;;;;;;0.10;0.00;;;18.80;48.50;;;;;;5109579;28;20139;-51
2023/01/16 08:38:47;;;;;;;0.10;0.00;;;18.80;48.40;;;;;;5109370;28;20031;-53
2023/01/16 08:52:16;;;;;;;6.25;0.80;;;18.80;48.70;;;;;;5105035;28;20579;-56
2023/01/16 08:54:44;;;;;;;1.13;0.25;;;18.70;48.80;;;;;;5104349;28;20039;-55
2023/01/16 08:57:11;;;;;;;0.30;0.05;;;18.80;49.00;;;;;;5109089;28;20059;-54
2023/01/16 08:59:38;;;;;;;1.25;0.00;;;18.80;49.10;;;;;;5091037;28;20122;-62
2023/01/16 09:02:06;;;;;;;4.65;0.30;;;18.80;49.10;;;;;;5108903;28;20147;-69
2023/01/16 09:04:36;;;;;;;4.47;0.20;;;18.80;49.30;;;;;;5092133;28;20604;-76
2023/01/16 09:07:04;;;;;;;3.83;0.00;;;18.90;49.30;;;;;;5109338;28;20048;-64
2023/01/16 09:09:31;;;;;;;0.50;0.00;;;18.90;49.30;;;;;;5108834;28;20054;-63
2023/01/16 09:14:43;;;;;;;4.18;0.00;;;19.10;49.30;;;;;;5108872;28;20048;-64
2023/01/16 09:17:10;;;;;;;3.30;0.10;;;19.10;49.20;;;;;;5108982;28;20054;-64
2023/01/16 09:19:39;;;;;;;2.03;0.00;;;19.10;49.10;;;;;;5109024;28;20035;-65
2023/01/16 09:22:06;;;;;;;0.22;0.22;;;19.20;49.00;;;;;;5108243;28;20039;-62
2023/01/16 09:24:33;;;;;;;0.57;0.00;;;19.20;48.90;;;;;;5108866;28;20040;-63
2023/01/16 09:27:02;;;;;;;0.68;0.00;;;19.20;48.80;;;;;;5109731;28;20136;-76
2023/01/16 09:29:29;;;;;;;1.35;0.00;;;19.30;48.80;;;;;;5108823;28;20047;-61
2023/01/16 09:31:57;;;;;;;0.28;0.15;;;19.30;48.70;;;;;;5121480;28;20015;-65
2023/01/16 09:34:24;;;;;;;0.43;0.05;;;19.30;48.70;;;;;;5108812;28;20561;-63
2023/01/16 09:36:52;;;;;;;0.63;0.00;;;19.40;48.70;;;;;;5108311;28;20071;-64
2023/01/16 09:39:19;;;;;;;3.30;0.05;;;19.40;48.70;;;;;;5108449;28;20123;-65
2023/01/16 09:44:46;;;;;;;2.38;0.08;;;19.50;48.60;;;;;;5108669;28;20136;-61
2023/01/16 09:47:14;;;;;;;0.63;0.63;;;19.40;48.50;;;;;;5108168;28;20519;-64
2023/01/16 09:49:48;;;;;;;0.10;0.00;;;19.50;48.60;;;;;;5090073;28;20071;-64
2023/01/16 10:00:48;;;;;;;0.10;0.00;;;19.60;48.50;;;;;;5108057;28;20042;-61
2023/01/16 10:03:15;;;;;;;4.32;0.38;;;19.60;48.50;;;;;;5108009;28;20427;-62
2023/01/16 10:05:50;;;;;;;0.00;0.00;;;19.60;48.40;;;;;;5089405;28;20040;-57
2023/01/16 10:08:26;;;;;;;0.75;0.00;;;19.60;48.40;;;;;;5108017;28;20126;-69
2023/01/16 10:10:59;;;;;;;0.10;0.00;;;19.70;48.40;;;;;;5101340;28;20082;-62
2023/01/16 10:13:59;;;;;;;0.00;0.00;;;19.70;48.40;;;;;;5108003;28;20040;-67
2023/01/16 10:16:34;;;;;;;0.00;0.00;;;19.70;48.30;;;;;;5103084;28;20043;-70
2023/01/16 10:19:09;;;;;;;0.13;0.05;;;19.70;48.40;;;;;;5108086;28;20051;-67
2023/01/16 10:22:02;;;;;;;0.98;0.00;;;19.70;48.40;;;;;;5107314;28;20047;-60
2023/01/16 10:24:42;;;;;;;1.65;0.10;;;19.70;48.40;;;;;;5107532;28;20070;-64
2023/01/16 10:27:18;;;;;;;0.10;0.10;;;19.80;48.40;;;;;;5116465;27;20044;-62
2023/01/16 10:29:51;;;;;;;1.10;0.00;;;19.80;48.30;;;;;;5110123;27;20208;-69
2023/01/16 10:32:26;;;;;;;1.17;0.00;;;19.80;48.20;;;;;;5127177;27;20043;-58
2023/01/16 10:35:00;;;;;;;0.70;0.00;;;19.90;48.20;;;;;;5107643;28;20139;-56
2023/01/16 10:37:28;;;;;;;0.43;0.43;;;19.90;48.10;;;;;;5106882;28;20052;-60
2023/01/16 10:39:59;;;;;;;0.20;0.00;;;19.90;48.00;;;;;;5107494;28;20646;-55
2023/01/16 10:50:50;;;;;;;0.80;0.28;;;20.00;47.80;;;;;;5104115;28;20051;-64
2023/01/16 10:53:18;;;;;;;0.20;0.00;;;20.00;47.80;;;;;;5069960;28;20055;-60
2023/01/16 10:55:51;;;;;;;0.68;0.00;;;19.90;47.60;;;;;;5106579;28;20405;-60
2023/01/16 10:58:29;;;;;;;2.78;0.08;;;20.00;47.60;;;;;;5106624;28;20462;-62
2023/01/16 11:01:00;;;;;;;4.65;0.00;;;20.00;47.60;;;;;;5106917;28;20043;-72
2023/01/16 11:03:33;;;;;;;4.40;0.40;;;20.00;47.60;;;;;;5106089;28;20728;-58
2023/01/16 11:06:11;;;;;;;0.73;0.65;;;20.00;47.60;;;;;;5101560;28;20036;-59
2023/01/16 11:08:39;;;;;;;0.30;0.30;;;20.00;47.50;;;;;;5104075;28;20032;-59
2023/01/16 11:18:27;;;;;;;2.47;0.10;;;20.00;47.40;;;;;;5106039;28;20146;-68
2023/01/16 11:19:43;;;;;;;0.50;0.00;;;20.00;47.40;;;;;;5086334;28;20047;-68
2023/01/16 11:22:25;;;;;;;0.40;0.10;;;20.10;47.40;;;;;;5068207;28;20044;-61
2023/01/16 11:24:58;;;;;;;2.50;0.00;;;20.00;47.30;;;;;;5104105;28;20397;-64
2023/01/16 11:27:32;;;;;;;0.52;0.00;;;20.00;47.40;;;;;;5106472;28;20062;-67
2023/01/16 11:30:03;;;;;;;2.65;0.40;;;20.00;47.30;;;;;;5089312;28;20054;-65
2023/01/16 11:32:34;;;;;;;0.10;0.00;;;20.10;47.30;;;;;;5106057;28;20177;-66
2023/01/16 11:35:02;;;;;;;0.17;0.00;;;20.10;47.30;;;;;;5106281;28;20472;-66
2023/01/16 11:37:30;;;;;;;2.80;0.00;;;20.10;47.20;;;;;;5106339;28;20133;-65
2023/01/16 11:40:03;;;;;;;0.40;0.00;;;20.10;47.10;;;;;;5110470;27;20054;-66
2023/01/16 11:50:51;;;;;;;0.20;0.00;;;20.20;47.20;;;;;;5104336;28;20054;-57
2023/01/16 11:53:18;;;;;;;0.20;0.20;;;20.20;47.50;;;;;;5104704;28;20032;-57
2023/01/16 11:55:58;;;;;;;0.20;0.00;;;20.30;47.60;;;;;;5089106;28;20048;-59
2023/01/16 11:58:41;;;;;;;1.55;0.30;;;20.50;47.60;;;;;;5110241;28;20103;-57
2023/01/16 12:01:14;;;;;;;0.10;0.03;;;20.70;47.50;;;;;;5102205;28;20126;-72
2023/01/16 12:04:01;;;;;;;0.10;0.00;;;20.90;47.30;;;;;;5110155;28;20059;-72
2023/01/16 12:06:54;;;;;;;0.32;0.10;;;21.10;47.80;;;;;;5111006;28;20500;-62
2023/01/16 12:09:38;;;;;;;0.13;0.00;;;21.20;46.90;;;;;;5110352;28;20465;-63
2023/01/16 12:15:23;;;;;;;5.13;0.00;;;21.60;46.60;;;;;;5074962;28;20825;-65
2023/01/16 12:18:09;;;;;;;0.10;0.10;;;21.70;46.30;;;;;;5109696;28;20043;-68
2023/01/16 12:20:45;;;;;;;0.32;0.00;;;21.90;46.20;;;;;;5109836;28;20047;-66
2023/01/16 12:23:45;;;;;;;0.10;0.00;;;22.00;46.00;;;;;;5089526;28;20040;-71
2023/01/16 12:26:19;;;;;;;0.50;0.00;;;22.10;45.70;;;;;;5097807;28;20051;-72
2023/01/16 12:28:58;;;;;;;0.52;0.00;;;22.20;45.60;;;;;;5091517;28;20083;-64
2023/01/16 12:31:56;;;;;;;0.25;0.05;;;22.40;45.40;;;;;;5109313;28;20046;-68
2023/01/16 12:34:41;;;;;;;0.00;0.00;;;22.50;45.10;;;;;;5109258;28;20040;-64
2023/01/16 12:37:27;;;;;;;0.20;0.08;;;22.50;44.80;;;;;;5109367;28;20040;-50
2023/01/16 12:40:05;;;;;;;1.60;0.00;;;22.60;44.70;;;;;;5109764;28;20039;-51
2023/01/16 12:45:43;;;;;;;1.98;0.10;;;22.70;44.50;;;;;;5108878;28;20044;-58
2023/01/16 12:48:28;;;;;;;0.17;0.00;;;22.80;44.40;;;;;;5110297;28;20095;-77
2023/01/16 12:51:11;;;;;;;3.83;0.13;;;22.90;44.30;;;;;;5109043;28;20040;-62
2023/01/16 12:54:12;;;;;;;2.88;0.00;;;23.00;44.10;;;;;;5106479;28;20075;-56
2023/01/16 12:56:48;;;;;;;1.85;0.95;;;23.10;44.00;;;;;;5073259;28;20091;-55
2023/01/16 12:59:20;;;;;;;2.35;0.25;;;23.10;43.90;;;;;;5088599;28;20578;-56
2023/01/16 13:01:50;;;;;;;0.43;0.10;;;23.10;43.90;;;;;;5088711;28;20046;-56
2023/01/16 13:04:25;;;;;;;2.35;0.00;;;23.10;43.80;;;;;;5088552;28;20062;-55
2023/01/16 13:06:56;;;;;;;3.97;0.10;;;23.20;43.80;;;;;;5088455;28;20524;-53
2023/01/16 13:09:35;;;;;;;8.07;0.20;;;23.20;43.80;;;;;;5088838;27;20089;-60
2023/01/16 13:15:03;;;;;;;0.77;0.15;;;23.30;43.70;;;;;;5074037;28;20059;-65
2023/01/16 13:17:42;;;;;;;0.22;0.10;;;23.40;43.70;;;;;;5108070;27;20043;-65
2023/01/16 13:20:14;;;;;;;2.10;0.25;;;23.40;43.50;;;;;;5108702;28;20403;-65
2023/01/16 13:22:48;;;;;;;6.15;0.47;;;23.50;43.40;;;;;;5085984;28;20102;-51
2023/01/16 13:25:20;;;;;;;10.05;0.10;;;23.60;43.90;;;;;;5096484;28;20125;-47
2023/01/16 13:27:54;;;;;;;2.00;0.10;;;23.60;43.10;;;;;;5107555;28;20050;-46
2023/01/16 13:30:21;;;;;;;5.13;0.30;;;23.70;42.90;;;;;;5107031;28;20040;-48
2023/01/16 13:32:54;;;;;;;6.00;1.63;;;23.70;42.60;;;;;;5107067;28;20120;-45
2023/01/16 13:35:26;;;;;;;1.27;0.10;;;23.70;42.40;;;;;;5107114;28;20460;-46
2023/01/16 13:38:16;;;;;;;3.88;0.10;;;23.60;42.20;;;;;;5106917;28;20044;-48
2023/01/16 13:41:07;;;;;;;3.30;0.05;;;23.60;42.00;;;;;;5106997;28;20063;-48
2023/01/16 13:46:26;;;;;;;0.95;0.65;;;23.50;41.70;;;;;;5106875;28;20495;-48
2023/01/16 13:48:57;;;;;;;4.55;0.38;;;23.40;41.70;;;;;;5107108;28;20754;-72
2023/01/16 13:51:26;;;;;;;0.68;0.10;;;23.40;41.50;;;;;;5099453;28;20048;-68
2023/01/16 13:53:57;;;;;;;2.20;0.10;;;23.40;41.80;;;;;;5099823;28;20039;-60
2023/01/16 13:56:26;;;;;;;1.50;0.20;;;23.20;41.80;;;;;;5102930;28;20135;-62
2023/01/16 13:58:59;;;;;;;5.10;0.10;;;23.20;42.00;;;;;;5106371;28;20070;-64
2023/01/16 14:01:33;;;;;;;1.17;0.68;;;23.20;42.10;;;;;;5097275;28;20047;-61
2023/01/16 14:04:33;;;;;;;2.80;0.10;;;23.10;42.20;;;;;;5106763;28;20046;-63
2023/01/16 14:10:16;;;;;;;1.63;0.63;;;23.00;42.40;;;;;;5019130;28;20499;-70
2023/01/16 14:12:59;;;;;;;1.75;0.10;;;23.00;42.50;;;;;;5023003;28;20052;-70
2023/01/16 14:18:37;;;;;;;1.70;0.15;;;22.90;42.50;;;;;;5025049;28;20482;-68
2023/01/16 14:21:09;;;;;;;2.03;0.20;;;22.80;42.50;;;;;;5026949;28;20216;-69
2023/01/16 14:26:36;;;;;;;0.85;0.10;;;22.80;42.50;;;;;;5007698;28;20426;-64
2023/01/16 14:29:16;;;;;;;0.20;0.00;;;22.70;42.40;;;;;;5025837;28;20053;-67
2023/01/16 14:31:51;;;;;;;0.30;0.10;;;22.70;42.50;;;;;;5008212;28;20059;-68